Time;durP1;ratioP1;P1;durP2;ratioP2;P2;SDS_P1;SDS_P2;PMS_P1;PMS_P2;Temp;Humidity;BMP_temperature;BMP_pressure;BME280_temperature;BME280_humidity;BME280_pressure;Samples;Min_cycle;Max_cycle;Signal;HPM_P1;HPM_P2
2024/01/17 05:09:11;;;;;;;24.35;12.40;;;-0.50;99.90;;;;;;7584543;19;20371;-74
2024/01/17 05:11:45;;;;;;;19.88;11.25;;;-0.60;99.90;;;;;;7610753;19;20025;-73
2024/01/17 05:14:20;;;;;;;25.30;11.82;;;-0.50;99.90;;;;;;7607452;19;20022;-72
2024/01/17 05:16:52;;;;;;;21.33;11.33;;;-0.40;99.90;;;;;;7621167;19;20092;-74
2024/01/17 05:19:24;;;;;;;27.55;11.82;;;-0.30;99.90;;;;;;7571179;19;20979;-74
2024/01/17 05:21:57;;;;;;;21.35;11.48;;;-0.20;99.90;;;;;;7612010;19;20018;-74
2024/01/17 05:24:30;;;;;;;25.67;10.82;;;-0.10;99.90;;;;;;7602480;19;20017;-72
2024/01/17 05:27:04;;;;;;;17.27;9.80;;;-0.10;99.90;;;;;;7608489;19;20965;-72
2024/01/17 05:29:43;;;;;;;17.17;9.43;;;0.00;99.90;;;;;;7576958;19;20047;-73
2024/01/17 05:32:15;;;;;;;18.55;9.95;;;0.00;99.90;;;;;;7609058;19;20014;-74
2024/01/17 05:34:50;;;;;;;19.33;9.23;;;0.10;99.90;;;;;;7592708;19;20014;-74
2024/01/17 05:37:23;;;;;;;19.95;9.55;;;0.20;99.90;;;;;;7599269;19;20041;-73
2024/01/17 05:39:56;;;;;;;;;;;0.20;99.90;;;;;;7597707;19;20030;-72
2024/01/17 05:42:29;;;;;;;20.45;10.32;;;0.20;99.90;;;;;;7575395;19;20404;-73
2024/01/17 05:45:03;;;;;;;18.92;10.40;;;0.20;99.90;;;;;;7587256;19;20101;-72
2024/01/17 05:47:37;;;;;;;37.85;10.13;;;0.20;99.90;;;;;;7592958;19;20022;-74
2024/01/17 05:50:11;;;;;;;20.70;10.60;;;0.30;99.90;;;;;;7593047;19;20589;-71
2024/01/17 05:52:50;;;;;;;21.52;10.27;;;0.30;99.90;;;;;;7599767;19;20086;-73
2024/01/17 05:55:23;;;;;;;21.35;11.13;;;0.40;99.90;;;;;;7612394;19;20018;-74
2024/01/17 05:57:57;;;;;;;22.95;11.43;;;0.40;99.90;;;;;;7600315;19;21438;-72
2024/01/17 06:00:29;;;;;;;21.45;11.63;;;0.40;99.90;;;;;;7600256;19;20606;-73
2024/01/17 06:03:01;;;;;;;22.05;11.20;;;0.40;99.90;;;;;;7557529;19;20454;-73
2024/01/17 06:05:35;;;;;;;27.42;12.15;;;0.40;99.90;;;;;;7599726;19;20022;-73
2024/01/17 06:08:08;;;;;;;22.98;11.50;;;0.40;99.90;;;;;;7599068;19;20018;-74
2024/01/17 06:10:40;;;;;;;21.75;10.55;;;0.40;99.90;;;;;;7573994;19;20831;-74
2024/01/17 06:13:13;;;;;;;23.13;12.07;;;0.40;99.90;;;;;;7590614;19;20018;-73
2024/01/17 06:18:19;;;;;;;25.10;12.13;;;0.40;99.90;;;;;;7578556;19;20377;-74
2024/01/17 06:20:53;;;;;;;21.73;11.20;;;0.40;99.90;;;;;;7606609;19;20022;-74
2024/01/17 06:23:26;;;;;;;25.95;11.75;;;0.40;99.90;;;;;;7596324;19;20014;-72
2024/01/17 06:25:59;;;;;;;21.80;10.85;;;0.40;99.90;;;;;;7585205;19;20017;-74
2024/01/17 06:28:33;;;;;;;25.85;12.15;;;0.50;99.90;;;;;;7587486;19;21127;-74
2024/01/17 06:31:07;;;;;;;29.75;13.70;;;0.50;99.90;;;;;;7580789;19;21039;-75
2024/01/17 06:33:40;;;;;;;30.17;13.95;;;0.40;99.90;;;;;;7595810;19;20014;-75
2024/01/17 06:36:13;;;;;;;28.98;14.27;;;0.50;99.90;;;;;;7609886;19;20022;-75
2024/01/17 06:38:45;;;;;;;26.00;13.77;;;0.40;99.90;;;;;;7606834;19;20029;-75
2024/01/17 06:41:17;;;;;;;30.35;14.57;;;0.50;99.90;;;;;;7618762;19;20591;-74
2024/01/17 06:43:50;;;;;;;27.90;13.07;;;0.40;99.90;;;;;;7609075;19;20110;-74
2024/01/17 06:46:22;;;;;;;25.02;14.98;;;0.50;99.90;;;;;;7622123;19;20025;-75
2024/01/17 06:48:54;;;;;;;28.30;14.70;;;0.50;99.90;;;;;;7610904;19;20025;-74
2024/01/17 06:51:27;;;;;;;27.70;13.93;;;0.50;99.90;;;;;;7624726;19;20025;-75
2024/01/17 06:54:00;;;;;;;26.02;13.93;;;0.50;99.90;;;;;;7624309;19;20022;-76
2024/01/17 06:56:34;;;;;;;31.15;13.68;;;0.50;99.90;;;;;;7623489;19;20105;-76
2024/01/17 06:59:07;;;;;;;27.23;14.52;;;0.60;99.90;;;;;;7624889;19;20014;-76
2024/01/17 07:01:40;;;;;;;24.23;12.88;;;0.60;99.90;;;;;;7597816;19;20512;-75
2024/01/17 07:04:12;;;;;;;29.08;15.00;;;0.60;99.90;;;;;;7574421;19;20010;-75
2024/01/17 07:06:45;;;;;;;33.97;14.88;;;0.60;99.90;;;;;;7575819;19;20452;-74
2024/01/17 07:09:18;;;;;;;25.27;13.85;;;0.60;99.90;;;;;;7581856;19;20014;-74
2024/01/17 07:11:50;;;;;;;27.17;14.35;;;0.60;99.90;;;;;;7587495;19;20025;-75
2024/01/17 07:14:23;;;;;;;25.13;14.30;;;0.60;99.90;;;;;;7617858;19;20021;-74
2024/01/17 07:16:55;;;;;;;24.73;13.93;;;0.50;99.90;;;;;;7603615;19;20014;-75
2024/01/17 07:19:27;;;;;;;28.23;13.02;;;0.60;99.90;;;;;;7612139;19;20029;-75
2024/01/17 07:22:00;;;;;;;25.75;12.07;;;0.50;99.90;;;;;;7609838;19;20081;-76
2024/01/17 07:24:33;;;;;;;23.08;12.52;;;0.60;99.90;;;;;;7605561;19;20032;-75
2024/01/17 07:27:05;;;;;;;21.67;11.63;;;0.60;99.90;;;;;;7616802;19;20040;-76
2024/01/17 07:29:38;;;;;;;20.85;12.00;;;0.60;99.90;;;;;;7584050;19;20048;-75
2024/01/17 07:32:10;;;;;;;20.00;12.70;;;0.60;99.90;;;;;;7595604;19;20010;-75
2024/01/17 07:34:42;;;;;;;19.80;12.15;;;0.60;99.90;;;;;;7574862;19;20496;-76
2024/01/17 07:37:15;;;;;;;28.07;12.90;;;0.70;99.90;;;;;;7588423;19;20126;-74
2024/01/17 07:39:50;;;;;;;22.20;12.27;;;0.70;99.90;;;;;;7586298;19;20025;-76
2024/01/17 07:42:23;;;;;;;21.73;13.25;;;0.60;99.90;;;;;;7563467;19;20425;-75
2024/01/17 07:44:59;;;;;;;22.73;14.05;;;0.60;99.90;;;;;;7587357;19;20018;-75
2024/01/17 07:47:32;;;;;;;25.98;13.30;;;0.60;99.90;;;;;;7572737;19;20018;-75
2024/01/17 07:50:05;;;;;;;;;;;0.60;99.90;;;;;;7588917;19;20247;-75
2024/01/17 07:52:38;;;;;;;28.27;15.48;;;0.60;99.90;;;;;;7562739;19;19930;-77
2024/01/17 07:55:12;;;;;;;27.45;14.52;;;0.60;99.90;;;;;;7547453;19;20014;-79
2024/01/17 15:42:26;;;;;;;11.57;6.40;;;3.70;99.90;;;;;;7602270;19;20390;-76
2024/01/17 15:44:59;;;;;;;9.77;5.60;;;3.70;99.90;;;;;;7596418;19;20075;-77
2024/01/17 15:47:32;;;;;;;13.73;6.93;;;3.90;99.90;;;;;;7598693;19;20058;-77
2024/01/17 15:50:04;;;;;;;8.50;6.03;;;4.00;99.90;;;;;;7616611;19;20055;-76
2024/01/17 15:52:37;;;;;;;10.50;6.22;;;4.20;99.90;;;;;;7602717;19;20022;-77
2024/01/17 15:55:09;;;;;;;8.50;4.60;;;4.30;99.90;;;;;;7578566;19;20010;-75
2024/01/17 15:57:42;;;;;;;7.40;4.70;;;4.40;99.90;;;;;;7596330;19;20052;-75
2024/01/17 16:00:15;;;;;;;5.50;3.53;;;4.60;99.90;;;;;;7587035;19;20018;-75
2024/01/17 16:02:48;;;;;;;12.23;6.57;;;4.70;99.90;;;;;;7587784;19;20018;-74
2024/01/17 16:05:20;;;;;;;13.88;5.50;;;4.70;99.90;;;;;;7557517;19;20026;-75
2024/01/17 16:07:53;;;;;;;9.20;5.47;;;4.80;99.90;;;;;;7602568;19;20018;-76
2024/01/17 16:10:26;;;;;;;12.45;4.53;;;4.80;99.90;;;;;;7583446;19;20014;-76
2024/01/17 16:13:01;;;;;;;5.82;3.75;;;4.90;99.90;;;;;;7575646;19;20628;-76
2024/01/17 16:15:34;;;;;;;11.45;3.38;;;4.90;99.90;;;;;;7550801;19;20025;-77
2024/01/17 16:18:07;;;;;;;7.13;3.28;;;4.90;99.90;;;;;;7586380;19;20024;-76
2024/01/17 16:20:41;;;;;;;10.25;4.45;;;5.00;99.90;;;;;;7594791;19;20024;-77
2024/01/17 16:23:14;;;;;;;7.65;3.75;;;5.00;99.90;;;;;;7568820;19;20022;-76
2024/01/17 16:25:46;;;;;;;8.50;3.77;;;5.10;99.90;;;;;;7541391;19;20010;-77
2024/01/17 16:28:20;;;;;;;14.18;5.38;;;5.10;99.90;;;;;;7565651;19;20961;-77
2024/01/17 16:30:55;;;;;;;13.70;6.45;;;5.10;99.90;;;;;;7537223;19;20114;-76
2024/01/17 16:33:28;;;;;;;16.20;6.53;;;5.20;99.90;;;;;;7499031;19;20065;-78
2024/01/17 16:36:01;;;;;;;19.60;11.60;;;5.20;99.90;;;;;;7506060;19;20011;-77
2024/01/17 16:38:35;;;;;;;9.77;5.10;;;5.30;99.90;;;;;;7545286;19;20097;-76
2024/01/17 16:41:07;;;;;;;13.95;6.70;;;5.30;99.90;;;;;;7548225;19;20011;-76
2024/01/17 16:43:40;;;;;;;10.10;4.75;;;5.30;99.90;;;;;;7566019;19;20021;-75
2024/01/17 16:46:12;;;;;;;10.80;5.30;;;5.30;99.90;;;;;;7580792;19;20021;-76
2024/01/17 16:48:45;;;;;;;9.45;4.72;;;5.30;99.90;;;;;;7547857;19;20022;-77
2024/01/17 16:51:18;;;;;;;19.13;7.75;;;5.40;99.90;;;;;;7538073;19;20055;-76
2024/01/17 16:53:51;;;;;;;15.73;6.67;;;5.30;99.90;;;;;;7512353;19;21415;-74
2024/01/17 16:56:24;;;;;;;18.05;8.20;;;5.30;99.90;;;;;;7518576;19;20279;-75
2024/01/17 16:58:57;;;;;;;13.07;5.85;;;5.40;99.90;;;;;;7518004;19;21614;-77
2024/01/17 17:01:30;;;;;;;8.77;4.72;;;5.30;99.90;;;;;;7523512;19;20039;-76
2024/01/17 17:04:03;;;;;;;12.27;5.47;;;5.40;99.90;;;;;;7543225;19;20014;-77
2024/01/17 17:06:36;;;;;;;12.25;4.47;;;5.30;99.90;;;;;;7540977;19;20022;-76
2024/01/17 17:09:08;;;;;;;8.93;4.97;;;5.40;99.90;;;;;;7563020;19;20015;-77
2024/01/17 17:11:41;;;;;;;11.45;5.15;;;5.50;99.90;;;;;;7551747;19;20031;-75
2024/01/17 17:14:15;;;;;;;13.70;6.40;;;5.60;99.90;;;;;;7548314;19;21191;-75
2024/01/17 17:16:49;;;;;;;13.48;6.70;;;5.60;99.90;;;;;;7545696;19;21072;-75
2024/01/17 17:19:21;;;;;;;20.50;8.70;;;5.60;99.90;;;;;;7515341;19;20110;-75
2024/01/17 17:21:54;;;;;;;32.40;9.93;;;5.60;99.90;;;;;;7039385;19;10000556;-76
2024/01/17 17:24:26;;;;;;;29.93;9.80;;;5.60;99.90;;;;;;7030372;19;10000343;-75
2024/01/17 17:26:59;;;;;;;20.40;8.35;;;5.50;99.90;;;;;;7542443;19;20022;-75
2024/01/17 17:29:32;;;;;;;28.07;10.70;;;5.60;99.90;;;;;;7533778;19;20538;-74
2024/01/17 17:32:05;;;;;;;29.60;11.93;;;5.60;99.90;;;;;;7552980;19;20287;-75
2024/01/17 17:34:37;;;;;;;36.13;13.30;;;5.60;99.90;;;;;;7566258;19;20901;-74
2024/01/17 17:37:10;;;;;;;47.85;16.13;;;5.60;99.90;;;;;;7555071;19;20664;-76
2024/01/17 17:39:44;;;;;;;44.00;16.40;;;5.60;99.90;;;;;;7552312;19;20030;-76
2024/01/17 17:42:16;;;;;;;31.98;12.35;;;5.60;99.90;;;;;;7547777;19;20006;-76
2024/01/17 17:44:50;;;;;;;9.53;5.07;;;5.60;99.90;;;;;;7545601;19;20006;-76
2024/01/17 17:47:22;;;;;;;9.05;5.40;;;5.60;99.90;;;;;;7564008;19;20275;-76
2024/01/17 17:49:55;;;;;;;9.70;4.97;;;5.60;99.90;;;;;;7572110;19;20014;-76
2024/01/17 17:52:27;;;;;;;9.80;4.82;;;5.60;99.90;;;;;;7539313;19;22102;-76
2024/01/17 17:55:00;;;;;;;9.30;5.38;;;5.50;99.90;;;;;;7555282;19;20510;-76
2024/01/17 17:57:35;;;;;;;8.73;4.85;;;5.50;99.90;;;;;;7549026;19;20013;-76
2024/01/17 18:00:08;;;;;;;9.68;5.85;;;5.40;99.90;;;;;;7526707;19;20534;-75
2024/01/17 18:02:41;;;;;;;8.50;5.50;;;5.40;99.90;;;;;;7553205;19;20011;-76
2024/01/17 18:05:13;;;;;;;9.57;5.53;;;5.40;99.90;;;;;;7557163;19;20022;-76
2024/01/17 18:07:46;;;;;;;10.50;4.85;;;5.40;99.90;;;;;;7540662;19;20018;-76
2024/01/17 18:10:20;;;;;;;11.65;5.57;;;5.40;99.90;;;;;;7570475;19;20641;-76
2024/01/17 18:12:53;;;;;;;11.10;6.00;;;5.30;99.90;;;;;;7561937;19;20014;-76
2024/01/17 18:15:25;;;;;;;12.68;5.10;;;5.10;99.90;;;;;;7567556;19;21343;-75
2024/01/17 18:17:58;;;;;;;11.45;6.50;;;5.00;99.90;;;;;;7559089;19;20383;-76
2024/01/17 18:20:30;;;;;;;17.60;10.05;;;4.90;99.90;;;;;;7583823;19;20006;-77
2024/01/17 18:23:02;;;;;;;20.77;10.18;;;4.70;99.90;;;;;;7574619;19;20022;-75
2024/01/17 18:25:35;;;;;;;19.38;9.32;;;4.80;99.90;;;;;;7570303;19;20018;-76
2024/01/17 18:28:07;;;;;;;20.17;9.00;;;5.00;99.90;;;;;;7581158;19;20018;-76
2024/01/17 18:30:40;;;;;;;17.88;8.80;;;5.00;99.90;;;;;;7565034;19;20021;-76
2024/01/17 18:33:12;;;;;;;18.23;9.35;;;5.10;99.90;;;;;;7563628;19;20034;-75
2024/01/17 18:35:45;;;;;;;19.08;7.90;;;5.10;99.90;;;;;;7570431;19;20034;-75
2024/01/17 18:38:17;;;;;;;14.35;7.55;;;5.20;99.90;;;;;;7568660;19;20109;-76
2024/01/17 18:40:49;;;;;;;15.00;6.63;;;5.30;99.90;;;;;;7562341;19;20043;-77
2024/01/17 18:43:21;;;;;;;9.55;5.68;;;5.20;99.90;;;;;;7584895;19;20026;-77
2024/01/17 18:45:56;;;;;;;14.90;6.88;;;5.30;99.90;;;;;;7560339;19;21390;-77
2024/01/17 18:48:28;;;;;;;34.08;16.15;;;5.30;99.90;;;;;;7553190;19;20022;-76
2024/01/17 18:51:01;;;;;;;17.88;7.82;;;5.30;99.90;;;;;;7584338;19;20006;-75
2024/01/17 18:53:35;;;;;;;15.30;7.93;;;5.40;99.90;;;;;;7572085;19;20015;-76
2024/01/17 18:56:08;;;;;;;13.85;6.75;;;5.60;99.90;;;;;;7579568;19;20010;-76
2024/01/17 18:58:40;;;;;;;19.65;9.15;;;5.60;99.90;;;;;;7574627;19;20021;-76
2024/01/17 19:01:13;;;;;;;9.75;5.45;;;5.60;99.90;;;;;;7585281;19;20077;-76
2024/01/17 19:03:45;;;;;;;8.18;4.28;;;5.70;99.90;;;;;;7583245;19;20010;-77
2024/01/17 19:06:20;;;;;;;8.67;4.60;;;5.80;99.90;;;;;;7583899;19;20022;-77
2024/01/17 19:08:54;;;;;;;5.28;3.25;;;6.00;99.90;;;;;;7570808;19;20071;-75
2024/01/17 19:11:28;;;;;;;8.45;3.30;;;6.20;99.90;;;;;;7588099;19;20641;-78
2024/01/17 19:14:00;;;;;;;7.65;3.47;;;6.30;99.90;;;;;;7590104;19;20542;-76
2024/01/17 19:16:33;;;;;;;6.45;3.13;;;6.40;99.90;;;;;;7579205;19;20721;-77
2024/01/17 19:19:06;;;;;;;5.78;2.78;;;6.40;99.90;;;;;;7586828;19;20526;-76
2024/01/17 19:21:39;;;;;;;5.07;3.17;;;6.60;99.90;;;;;;7573658;19;22578;-77
2024/01/17 19:24:13;;;;;;;5.15;2.72;;;6.60;99.90;;;;;;7583319;19;20014;-76
2024/01/17 19:26:46;;;;;;;5.63;3.00;;;6.70;99.90;;;;;;7570351;19;20026;-77
2024/01/17 19:29:18;;;;;;;6.18;3.30;;;6.70;99.90;;;;;;7582937;19;20024;-75
2024/01/17 19:31:52;;;;;;;5.57;2.78;;;6.90;99.90;;;;;;7570804;19;21365;-77
2024/01/17 19:34:25;;;;;;;5.10;3.05;;;7.00;99.90;;;;;;7580860;19;20024;-77
2024/01/17 19:36:58;;;;;;;4.17;2.47;;;7.10;99.90;;;;;;7575531;19;21065;-76
2024/01/17 19:39:34;;;;;;;6.40;2.72;;;7.20;99.90;;;;;;7572631;19;20015;-75
2024/01/17 19:42:06;;;;;;;5.07;2.90;;;7.20;99.90;;;;;;7575641;19;20014;-75
2024/01/17 19:44:38;;;;;;;4.70;2.85;;;7.20;99.90;;;;;;7608213;19;20007;-76
2024/01/17 19:47:12;;;;;;;5.50;2.90;;;7.30;99.90;;;;;;7580510;19;20021;-77
2024/01/17 19:49:44;;;;;;;4.15;2.60;;;7.30;99.90;;;;;;7587155;19;20015;-77
2024/01/17 19:52:17;;;;;;;6.97;2.57;;;7.30;99.90;;;;;;7597713;19;20838;-77
2024/01/17 19:54:49;;;;;;;5.18;2.80;;;7.50;99.90;;;;;;7578387;19;20018;-77
2024/01/17 19:57:23;;;;;;;5.32;3.22;;;7.50;99.90;;;;;;7577375;19;20017;-76
2024/01/17 19:59:57;;;;;;;5.60;2.85;;;7.50;99.90;;;;;;7550098;19;21283;-77
2024/01/17 20:02:30;;;;;;;5.40;2.78;;;7.50;99.90;;;;;;7562857;19;20067;-77
2024/01/17 20:05:03;;;;;;;5.03;2.73;;;7.60;99.90;;;;;;7570124;19;20450;-77
2024/01/17 20:07:36;;;;;;;4.28;2.47;;;7.60;99.90;;;;;;7577048;19;20275;-77
2024/01/17 20:10:09;;;;;;;3.28;2.08;;;7.60;99.90;;;;;;7582088;19;20078;-77
2024/01/17 20:12:42;;;;;;;9.37;3.47;;;7.50;99.90;;;;;;7575291;19;20019;-77
2024/01/17 20:15:14;;;;;;;5.55;2.45;;;7.60;99.90;;;;;;7574844;19;20015;-77
2024/01/17 20:17:46;;;;;;;3.90;2.50;;;7.70;99.90;;;;;;7566532;19;20011;-79
2024/01/17 20:20:20;;;;;;;5.95;2.33;;;7.70;99.90;;;;;;7571738;19;20014;-77
2024/01/17 20:22:52;;;;;;;3.17;1.85;;;7.80;99.90;;;;;;7575750;19;20327;-76
2024/01/17 20:25:24;;;;;;;5.70;1.65;;;7.80;99.90;;;;;;7558879;19;20025;-74
2024/01/17 20:27:56;;;;;;;3.58;2.03;;;7.90;99.90;;;;;;7574732;19;20023;-75
2024/01/17 20:30:29;;;;;;;5.50;1.95;;;8.00;99.90;;;;;;7578620;19;20026;-76
2024/01/17 20:33:05;;;;;;;5.85;2.13;;;8.00;99.90;;;;;;7581062;19;20014;-76
2024/01/17 20:35:38;;;;;;;3.35;1.70;;;8.00;99.90;;;;;;7577845;19;20022;-76
2024/01/17 20:38:10;;;;;;;3.88;2.00;;;7.90;99.90;;;;;;7583556;19;20010;-76
2024/01/17 20:40:42;;;;;;;3.15;1.73;;;7.90;99.90;;;;;;7593607;19;20014;-76
2024/01/17 20:43:15;;;;;;;2.90;1.63;;;7.80;99.90;;;;;;7578597;19;20015;-76
2024/01/17 20:45:47;;;;;;;2.40;1.23;;;7.90;99.90;;;;;;7543137;19;20737;-75
2024/01/17 20:48:20;;;;;;;2.70;1.50;;;8.00;99.90;;;;;;7579036;19;20026;-76
2024/01/17 20:50:57;;;;;;;4.30;1.73;;;8.00;99.90;;;;;;7565260;19;20019;-75
2024/01/17 20:53:30;;;;;;;2.63;1.60;;;7.90;99.90;;;;;;7585089;19;20551;-76
2024/01/17 20:56:06;;;;;;;2.55;1.58;;;7.90;99.90;;;;;;7586198;19;20045;-77
2024/01/17 20:58:40;;;;;;;3.58;1.73;;;7.80;99.90;;;;;;7578535;19;20033;-76
